createdAt,value
2023-05-01T00:02:22.185Z,7.65
2023-05-01T00:04:48.886Z,7.50
2023-05-01T00:07:15.864Z,7.28
2023-05-01T00:09:42.441Z,6.55
2023-05-01T00:12:08.921Z,7.13
2023-05-01T00:14:35.580Z,6.88
2023-05-01T00:17:02.155Z,6.78
2023-05-01T00:19:28.642Z,6.72
2023-05-01T00:21:55.114Z,7.50
2023-05-01T00:24:21.773Z,5.78
2023-05-01T00:26:48.272Z,7.25
2023-05-01T00:29:15.118Z,6.65
2023-05-01T00:31:42.716Z,6.30
2023-05-01T00:34:10.183Z,5.63
2023-05-01T00:36:36.807Z,5.85
2023-05-01T00:39:03.860Z,5.10
2023-05-01T00:41:30.377Z,7.38
2023-05-01T00:43:57.845Z,5.80
2023-05-01T00:46:24.875Z,7.38
2023-05-01T00:48:52.406Z,5.28
2023-05-01T00:51:20.163Z,5.47
2023-05-01T00:53:46.692Z,7.88
2023-05-01T00:56:13.216Z,5.10
2023-05-01T00:58:40.336Z,5.53
2023-05-01T01:01:08.838Z,5.82
2023-05-01T01:03:35.589Z,6.40
2023-05-01T01:06:10.283Z,6.00
2023-05-01T01:09:18.273Z,6.93
2023-05-01T01:11:53.523Z,7.10
2023-05-01T01:14:35.994Z,7.03
2023-05-01T01:17:29.608Z,5.93
2023-05-01T01:20:18.653Z,7.88
2023-05-01T01:22:54.316Z,6.55
2023-05-01T01:25:50.269Z,6.40
2023-05-01T01:28:29.431Z,6.82
2023-05-01T01:31:10.235Z,6.68
2023-05-01T01:34:01.569Z,8.13
2023-05-01T01:37:19.812Z,6.30
2023-05-01T01:39:58.150Z,6.95
2023-05-01T01:42:37.794Z,8.00
2023-05-01T01:45:19.174Z,6.22
2023-05-01T01:47:49.180Z,6.38
2023-05-01T01:50:17.149Z,6.18
2023-05-01T01:52:45.549Z,5.70
2023-05-01T01:55:13.439Z,5.22
2023-05-01T01:57:43.721Z,6.85
2023-05-01T02:00:11.483Z,8.63
2023-05-01T02:02:44.524Z,6.13
2023-05-01T02:05:16.443Z,5.97
2023-05-01T02:07:46.106Z,5.82
2023-05-01T02:10:14.078Z,7.40
2023-05-01T02:12:46.244Z,5.40
2023-05-01T02:15:13.987Z,5.93
2023-05-01T02:17:41.250Z,6.43
2023-05-01T02:20:09.463Z,6.55
2023-05-01T02:22:36.698Z,6.10
2023-05-01T02:25:04.369Z,7.63
2023-05-01T02:27:34.139Z,6.93
2023-05-01T02:30:00.701Z,6.55
2023-05-01T02:32:28.466Z,5.82
2023-05-01T02:34:55.855Z,6.15
2023-05-01T02:37:22.300Z,5.93
2023-05-01T02:39:49.434Z,6.63
2023-05-01T02:42:17.003Z,5.90
2023-05-01T02:44:48.656Z,6.28
2023-05-01T02:47:18.472Z,6.32
2023-05-01T02:49:47.880Z,7.30
2023-05-01T02:52:16.230Z,5.55
2023-05-01T02:54:45.283Z,5.38
2023-05-01T02:57:12.806Z,5.03
2023-05-01T02:59:40.273Z,6.38
2023-05-01T03:02:07.321Z,5.90
2023-05-01T03:04:33.965Z,7.32
2023-05-01T03:07:00.723Z,6.05
2023-05-01T03:09:27.273Z,8.38
2023-05-01T03:11:53.718Z,6.53
2023-05-01T03:14:20.327Z,6.18
2023-05-01T03:16:47.170Z,5.82
2023-05-01T03:19:13.691Z,5.60
2023-05-01T03:21:40.170Z,6.93
2023-05-01T03:24:07.089Z,6.57
2023-05-01T03:26:33.689Z,6.00
2023-05-01T03:29:00.225Z,6.72
2023-05-01T03:31:27.324Z,6.88
2023-05-01T03:33:55.814Z,7.78
2023-05-01T03:36:22.505Z,6.05
2023-05-01T03:38:50.948Z,5.65
2023-05-01T03:41:55.488Z,7.90
2023-05-01T03:44:24.619Z,6.60
2023-05-01T03:46:51.548Z,6.50
2023-05-01T03:49:23.574Z,6.97
2023-05-01T03:51:50.512Z,6.22
2023-05-01T03:54:18.043Z,5.95
2023-05-01T03:56:55.919Z,5.70
2023-05-01T03:59:22.652Z,7.35
2023-05-01T04:01:49.539Z,6.18
2023-05-01T04:04:16.910Z,6.63
2023-05-01T04:06:49.644Z,5.65
2023-05-01T04:09:16.232Z,6.55
2023-05-01T04:11:42.757Z,6.35
2023-05-01T04:14:09.263Z,5.88
2023-05-01T04:16:36.909Z,6.80
2023-05-01T04:19:03.600Z,6.03
2023-05-01T04:21:34.464Z,6.63
2023-05-01T04:24:01.266Z,6.68
2023-05-01T04:26:28.287Z,7.20
2023-05-01T04:28:54.867Z,6.88
2023-05-01T04:31:24.557Z,6.57
2023-05-01T04:33:51.686Z,7.20
2023-05-01T04:36:18.685Z,6.97
2023-05-01T04:38:45.263Z,5.90
2023-05-01T04:41:12.763Z,7.15
2023-05-01T04:43:39.317Z,7.13
2023-05-01T04:46:07.121Z,6.85
2023-05-01T04:48:33.714Z,7.85
2023-05-01T04:51:00.257Z,7.95
2023-05-01T04:53:30.713Z,6.05
2023-05-01T04:55:57.319Z,7.45
2023-05-01T04:58:24.190Z,5.57
2023-05-01T05:00:56.583Z,6.53
2023-05-01T05:03:24.234Z,7.45
2023-05-01T05:05:50.909Z,7.68
2023-05-01T05:08:17.596Z,7.13
2023-05-01T05:10:58.820Z,6.65
2023-05-01T05:13:29.626Z,6.40
2023-05-01T05:16:09.075Z,8.38
2023-05-01T05:18:35.611Z,8.27
2023-05-01T05:21:04.929Z,8.95
2023-05-01T05:23:31.880Z,10.02
2023-05-01T05:26:01.292Z,7.50
2023-05-01T05:28:28.294Z,7.72
2023-05-01T05:30:55.455Z,7.25
2023-05-01T05:33:25.065Z,6.45
2023-05-01T05:35:54.678Z,7.55
2023-05-01T05:38:25.393Z,6.05
2023-05-01T05:40:55.480Z,6.93
2023-05-01T05:43:22.747Z,7.75
2023-05-01T05:45:49.368Z,7.60
2023-05-01T05:48:18.867Z,6.60
2023-05-01T05:53:14.920Z,7.82
2023-05-01T05:55:43.555Z,5.95
2023-05-01T05:58:10.110Z,6.93
2023-05-01T06:00:37.169Z,8.48
2023-05-01T06:03:05.760Z,6.07
2023-05-01T06:05:39.236Z,8.88
2023-05-01T06:08:05.748Z,6.55
2023-05-01T06:10:32.296Z,9.25
2023-05-01T06:13:07.320Z,9.05
2023-05-01T06:15:44.881Z,6.95
2023-05-01T06:18:12.022Z,6.38
2023-05-01T06:20:38.902Z,7.05
2023-05-01T06:23:05.828Z,6.22
2023-05-01T06:25:40.974Z,8.05
2023-05-01T06:28:07.519Z,7.90
2023-05-01T06:30:35.116Z,6.40
2023-05-01T06:33:02.971Z,6.38
2023-05-01T06:35:29.664Z,7.80
2023-05-01T06:37:56.527Z,6.30
2023-05-01T06:40:23.039Z,9.23
2023-05-01T06:42:49.615Z,7.38
2023-05-01T06:45:16.373Z,7.00
2023-05-01T06:47:43.220Z,7.10
2023-05-01T06:50:10.365Z,7.90
2023-05-01T06:52:36.849Z,7.50
2023-05-01T06:55:06.026Z,6.78
2023-05-01T06:57:32.547Z,8.38
2023-05-01T07:00:01.583Z,6.40
2023-05-01T07:02:28.209Z,7.03
2023-05-01T07:04:57.720Z,7.60
2023-05-01T07:07:24.301Z,7.55
2023-05-01T07:09:50.803Z,8.10
2023-05-01T07:12:17.363Z,7.25
2023-05-01T07:14:44.193Z,7.45
2023-05-01T07:17:10.654Z,6.75
2023-05-01T07:19:37.124Z,9.27
2023-05-01T07:22:04.772Z,7.10
2023-05-01T07:24:31.281Z,6.93
2023-05-01T07:26:57.956Z,6.63
2023-05-01T07:29:24.565Z,6.10
2023-05-01T07:31:51.420Z,7.15
2023-05-01T07:34:21.401Z,6.15
2023-05-01T07:36:47.878Z,6.05
2023-05-01T07:39:14.864Z,6.80
2023-05-01T07:41:41.360Z,7.57
2023-05-01T07:44:07.893Z,6.68
2023-05-01T07:46:35.182Z,7.13
2023-05-01T07:49:02.080Z,7.38
2023-05-01T07:51:28.602Z,5.82
2023-05-01T07:53:55.117Z,7.47
2023-05-01T07:56:21.741Z,7.88
2023-05-01T07:58:48.262Z,7.03
2023-05-01T08:01:17.767Z,6.55
2023-05-01T08:03:44.512Z,6.93
2023-05-01T08:06:11.174Z,6.82
2023-05-01T08:08:37.721Z,8.13
2023-05-01T08:11:04.387Z,7.40
2023-05-01T08:13:31.044Z,6.63
2023-05-01T08:16:02.425Z,6.13
2023-05-01T08:18:29.961Z,6.80
2023-05-01T08:20:56.553Z,6.18
2023-05-01T08:23:25.209Z,7.30
2023-05-01T08:25:52.446Z,7.53
2023-05-01T08:28:21.081Z,7.32
2023-05-01T08:30:49.202Z,6.88
2023-05-01T08:33:16.449Z,7.70
2023-05-01T08:35:43.129Z,6.30
2023-05-01T08:38:11.307Z,6.88
2023-05-01T08:40:38.662Z,7.07
2023-05-01T08:43:08.031Z,7.53
2023-05-01T08:45:37.563Z,8.70
2023-05-01T08:48:07.866Z,7.07
2023-05-01T08:50:37.884Z,6.57
2023-05-01T08:53:05.518Z,8.10
2023-05-01T08:55:32.511Z,7.75
2023-05-01T08:57:59.673Z,6.78
2023-05-01T09:00:27.216Z,6.68
2023-05-01T09:02:54.331Z,7.55
2023-05-01T09:05:21.450Z,7.78
2023-05-01T09:07:48.519Z,6.70
2023-05-01T09:10:21.865Z,7.07
2023-05-01T09:12:51.856Z,7.18
2023-05-01T09:15:18.477Z,6.50
2023-05-01T09:17:45.623Z,7.35
2023-05-01T09:20:12.512Z,8.75
2023-05-01T09:22:39.007Z,7.63
2023-05-01T09:25:06.436Z,6.78
2023-05-01T09:27:37.219Z,7.68
2023-05-01T09:30:06.005Z,6.80
2023-05-01T09:32:32.706Z,8.13
2023-05-01T09:35:13.595Z,7.05
2023-05-01T09:37:41.024Z,8.45
2023-05-01T09:40:12.850Z,8.27
2023-05-01T09:42:41.407Z,6.85
2023-05-01T09:45:15.215Z,6.43
2023-05-01T09:47:45.994Z,9.85
2023-05-01T09:50:29.119Z,6.63
2023-05-01T09:52:55.729Z,8.75
2023-05-01T09:55:25.400Z,7.32
2023-05-01T09:57:52.987Z,7.70
2023-05-01T10:00:22.077Z,6.60
2023-05-01T10:02:49.866Z,7.82
2023-05-01T10:05:17.624Z,7.10
2023-05-01T10:08:01.542Z,7.22
2023-05-01T10:10:28.290Z,9.48
2023-05-01T10:12:55.455Z,9.05
2023-05-01T10:15:26.778Z,8.48
2023-05-01T10:17:54.578Z,7.85
2023-05-01T10:20:21.717Z,8.40
2023-05-01T10:22:49.089Z,7.10
2023-05-01T10:25:17.746Z,10.88
2023-05-01T10:27:44.468Z,25.40
2023-05-01T10:30:11.470Z,7.72
2023-05-01T10:32:39.075Z,7.85
2023-05-01T10:35:08.896Z,9.40
2023-05-01T10:37:49.222Z,7.65
2023-05-01T10:40:43.479Z,7.85
2023-05-01T10:43:14.130Z,6.32
2023-05-01T10:45:40.699Z,7.35
2023-05-01T10:48:07.508Z,9.38
2023-05-01T10:50:34.777Z,7.72
2023-05-01T10:53:11.705Z,11.60
2023-05-01T10:55:39.469Z,7.57
2023-05-01T10:58:06.004Z,8.73
2023-05-01T11:00:34.208Z,8.50
2023-05-01T11:03:22.483Z,8.55
2023-05-01T11:06:02.293Z,7.93
2023-05-01T11:08:30.748Z,8.80
2023-05-01T11:10:57.337Z,8.55
2023-05-01T11:14:03.776Z,7.43
2023-05-01T11:16:42.326Z,8.10
2023-05-01T11:19:22.238Z,7.65
2023-05-01T11:21:50.385Z,6.80
2023-05-01T11:24:19.676Z,8.30
2023-05-01T11:26:47.300Z,7.90
2023-05-01T11:29:13.962Z,8.40
2023-05-01T11:31:41.627Z,8.85
2023-05-01T11:34:09.806Z,9.07
2023-05-01T11:36:49.456Z,8.05
2023-05-01T11:39:18.910Z,8.20
2023-05-01T11:41:46.134Z,9.10
2023-05-01T11:44:15.250Z,9.13
2023-05-01T11:49:09.373Z,7.75
2023-05-01T11:51:36.020Z,7.80
2023-05-01T11:54:09.779Z,9.45
2023-05-01T11:56:37.148Z,10.40
2023-05-01T11:59:17.973Z,7.97
2023-05-01T12:01:49.018Z,7.10
2023-05-01T12:04:43.816Z,7.63
2023-05-01T12:07:20.395Z,7.85
2023-05-01T12:09:47.264Z,7.68
2023-05-01T12:12:13.901Z,8.18
2023-05-01T12:14:46.301Z,7.47
2023-05-01T12:17:12.955Z,7.72
2023-05-01T12:19:48.907Z,8.80
2023-05-01T12:22:15.645Z,8.40
2023-05-01T12:24:54.239Z,8.25
2023-05-01T12:27:21.071Z,7.78
2023-05-01T12:29:48.158Z,10.63
2023-05-01T12:32:15.402Z,8.65
2023-05-01T12:34:41.944Z,7.85
2023-05-01T12:37:09.330Z,7.85
2023-05-01T12:39:39.593Z,8.93
2023-05-01T12:42:17.997Z,7.97
2023-05-01T12:44:44.823Z,7.72
2023-05-01T12:47:12.290Z,9.05
2023-05-01T12:49:41.787Z,8.48
2023-05-01T12:52:09.092Z,9.32
2023-05-01T12:54:38.069Z,9.27
2023-05-01T12:57:11.687Z,8.60
2023-05-01T12:59:39.858Z,8.27
2023-05-01T13:02:12.448Z,8.02
2023-05-01T13:04:39.501Z,10.80
2023-05-01T13:07:14.692Z,8.40
2023-05-01T13:09:55.251Z,10.02
2023-05-01T13:12:22.187Z,8.13
2023-05-01T13:14:49.005Z,8.82
2023-05-01T13:17:23.754Z,8.30
2023-05-01T13:19:54.952Z,9.02
2023-05-01T13:22:39.807Z,7.95
2023-05-01T13:25:16.002Z,8.18
2023-05-01T13:27:49.929Z,7.72
2023-05-01T13:30:21.970Z,8.00
2023-05-01T13:32:49.633Z,8.10
2023-05-01T13:35:24.483Z,8.75
2023-05-01T13:37:51.875Z,8.32
2023-05-01T13:40:19.074Z,9.10
2023-05-01T13:43:06.442Z,7.72
2023-05-01T13:45:33.094Z,8.30
2023-05-01T13:47:59.834Z,8.18
2023-05-01T13:50:27.334Z,8.20
2023-05-01T13:52:54.012Z,9.38
2023-05-01T13:55:21.760Z,7.40
2023-05-01T13:57:49.407Z,7.90
2023-05-01T14:00:37.087Z,7.65
2023-05-01T14:03:03.817Z,7.05
2023-05-01T14:05:30.530Z,7.65
2023-05-01T14:07:58.386Z,7.10
2023-05-01T14:10:27.786Z,7.03
2023-05-01T14:12:58.729Z,6.40
2023-05-01T14:15:25.645Z,6.35
2023-05-01T14:17:52.960Z,6.97
2023-05-01T14:20:19.644Z,6.10
2023-05-01T14:22:48.259Z,8.45
2023-05-01T14:25:21.322Z,6.65
2023-05-01T14:27:48.047Z,7.32
2023-05-01T14:30:24.579Z,8.10
2023-05-01T14:32:51.361Z,7.00
2023-05-01T14:35:18.480Z,8.10
2023-05-01T14:37:44.952Z,6.40
2023-05-01T14:40:12.277Z,6.45
2023-05-01T14:42:43.133Z,7.78
2023-05-01T14:45:17.095Z,6.20
2023-05-01T14:47:48.004Z,8.10
2023-05-01T14:50:23.043Z,7.63
2023-05-01T14:52:54.343Z,8.07
2023-05-01T14:55:29.236Z,6.65
2023-05-01T14:57:56.992Z,7.13
2023-05-01T15:00:24.137Z,6.40
2023-05-01T15:02:51.120Z,6.82
2023-05-01T15:05:17.987Z,6.70
2023-05-01T15:07:44.784Z,6.63
2023-05-01T15:10:11.684Z,6.70
2023-05-01T15:12:38.276Z,6.53
2023-05-01T15:15:05.627Z,6.13
2023-05-01T15:17:32.555Z,6.20
2023-05-01T15:19:59.297Z,7.47
2023-05-01T15:22:25.834Z,7.03
2023-05-01T15:24:52.409Z,6.72
2023-05-01T15:27:18.965Z,6.80
2023-05-01T15:29:45.447Z,7.75
2023-05-01T15:32:13.026Z,7.65
2023-05-01T15:34:41.183Z,8.30
2023-05-01T15:37:07.666Z,6.95
2023-05-01T15:39:34.446Z,6.88
2023-05-01T15:42:01.219Z,8.68
2023-05-01T15:44:28.728Z,8.13
2023-05-01T15:46:57.139Z,7.65
2023-05-01T15:49:24.020Z,9.02
2023-05-01T15:51:50.607Z,7.47
2023-05-01T15:54:17.247Z,8.88
2023-05-01T15:56:43.724Z,8.10
2023-05-01T15:59:10.281Z,7.57
2023-05-01T16:01:37.180Z,6.82
2023-05-01T16:04:04.487Z,8.93
2023-05-01T16:06:31.318Z,8.13
2023-05-01T16:08:59.151Z,7.82
2023-05-01T16:11:25.840Z,8.55
2023-05-01T16:13:54.223Z,6.75
2023-05-01T16:16:26.002Z,7.75
2023-05-01T16:18:59.318Z,6.93
2023-05-01T16:21:27.244Z,7.07
2023-05-01T16:23:57.370Z,7.25
2023-05-01T16:26:29.656Z,8.93
2023-05-01T16:29:00.115Z,7.05
2023-05-01T16:31:27.997Z,8.05
2023-05-01T16:33:54.953Z,7.20
2023-05-01T16:36:21.742Z,7.25
2023-05-01T16:38:48.408Z,7.50
2023-05-01T16:41:18.159Z,7.88
2023-05-01T16:43:46.130Z,8.45
2023-05-01T16:46:16.574Z,9.23
2023-05-01T16:48:43.266Z,9.80
2023-05-01T16:51:10.308Z,9.68
2023-05-01T16:53:36.892Z,9.45
2023-05-01T16:56:04.715Z,9.30
2023-05-01T16:58:31.364Z,9.10
2023-05-01T17:00:57.946Z,9.57
2023-05-01T17:03:24.560Z,10.80
2023-05-01T17:05:51.473Z,8.60
2023-05-01T17:08:18.047Z,10.82
2023-05-01T17:10:45.137Z,10.43
2023-05-01T17:13:14.498Z,10.73
2023-05-01T17:15:41.744Z,9.60
2023-05-01T17:18:08.630Z,7.93
2023-05-01T17:20:35.399Z,10.18
2023-05-01T17:23:02.070Z,12.15
2023-05-01T17:25:28.710Z,12.00
2023-05-01T17:27:55.688Z,11.70
2023-05-01T17:30:22.259Z,9.13
2023-05-01T17:32:48.999Z,10.30
2023-05-01T17:35:16.673Z,8.85
2023-05-01T17:37:43.256Z,8.50
2023-05-01T17:40:13.180Z,10.35
2023-05-01T17:42:39.872Z,9.27
2023-05-01T17:45:07.731Z,10.43
2023-05-01T17:47:34.676Z,8.00
2023-05-01T17:50:04.723Z,8.63
2023-05-01T17:52:31.823Z,7.55
2023-05-01T17:54:58.928Z,8.63
2023-05-01T17:57:25.489Z,7.50
2023-05-01T17:59:52.610Z,7.68
2023-05-01T18:02:19.512Z,18.45
2023-05-01T18:04:50.153Z,11.13
2023-05-01T18:07:17.124Z,12.05
2023-05-01T18:09:43.943Z,12.23
2023-05-01T18:12:10.523Z,12.00
2023-05-01T18:14:37.478Z,12.88
2023-05-01T18:17:04.187Z,11.25
2023-05-01T18:19:30.930Z,9.82
2023-05-01T18:21:57.645Z,11.00
2023-05-01T18:24:24.202Z,8.80
2023-05-01T18:26:50.874Z,8.98
2023-05-01T18:29:18.385Z,10.75
2023-05-01T18:31:46.591Z,10.60
2023-05-01T18:34:17.030Z,8.93
2023-05-01T18:36:46.373Z,8.75
2023-05-01T18:39:13.148Z,10.97
2023-05-01T18:41:40.051Z,8.65
2023-05-01T18:44:06.635Z,8.10
2023-05-01T18:46:33.345Z,8.23
2023-05-01T18:49:01.321Z,8.55
2023-05-01T18:51:27.970Z,7.85
2023-05-01T18:53:54.632Z,7.22
2023-05-01T18:56:24.182Z,7.53
2023-05-01T18:58:50.973Z,7.88
2023-05-01T19:01:17.579Z,8.10
2023-05-01T19:03:44.321Z,7.22
2023-05-01T19:06:11.548Z,9.55
2023-05-01T19:08:38.448Z,8.82
2023-05-01T19:11:05.531Z,10.85
2023-05-01T19:13:33.050Z,11.27
2023-05-01T19:15:59.714Z,9.18
2023-05-01T19:18:26.431Z,9.55
2023-05-01T19:20:53.086Z,9.57
2023-05-01T19:23:19.678Z,9.75
2023-05-01T19:25:46.481Z,9.07
2023-05-01T19:28:13.099Z,9.90
2023-05-01T19:30:41.222Z,8.85
2023-05-01T19:33:07.931Z,10.25
2023-05-01T19:35:35.380Z,8.63
2023-05-01T19:38:01.950Z,7.93
2023-05-01T19:40:28.810Z,8.85
2023-05-01T19:42:56.446Z,8.80
2023-05-01T19:45:23.303Z,11.50
2023-05-01T19:47:51.223Z,14.98
2023-05-01T19:50:20.164Z,16.25
2023-05-01T19:52:46.789Z,15.95
2023-05-01T19:55:14.873Z,11.85
2023-05-01T19:57:41.817Z,9.10
2023-05-01T20:00:11.815Z,9.77
2023-05-01T20:02:39.107Z,8.85
2023-05-01T20:05:05.954Z,9.73
2023-05-01T20:07:36.728Z,9.35
2023-05-01T20:10:04.944Z,8.70
2023-05-01T20:12:32.621Z,9.68
2023-05-01T20:15:04.014Z,9.48
2023-05-01T20:17:31.001Z,11.15
2023-05-01T20:19:58.023Z,10.98
2023-05-01T20:22:24.958Z,8.48
2023-05-01T20:24:51.560Z,8.57
2023-05-01T20:27:18.495Z,9.80
2023-05-01T20:29:45.446Z,8.70
2023-05-01T20:32:12.143Z,9.88
2023-05-01T20:34:38.988Z,8.25
2023-05-01T20:37:06.912Z,11.32
2023-05-01T20:39:33.496Z,9.52
2023-05-01T20:42:00.851Z,8.95
2023-05-01T20:44:27.722Z,8.13
2023-05-01T20:46:54.380Z,10.68
2023-05-01T20:49:21.291Z,12.70
2023-05-01T20:51:48.002Z,10.18
2023-05-01T20:54:14.603Z,12.93
2023-05-01T20:56:41.672Z,11.35
2023-05-01T20:59:08.256Z,18.23
2023-05-01T21:01:35.030Z,14.75
2023-05-01T21:04:01.656Z,13.10
2023-05-01T21:06:31.580Z,10.07
2023-05-01T21:08:59.845Z,8.63
2023-05-01T21:11:26.782Z,10.10
2023-05-01T21:13:53.376Z,9.10
2023-05-01T21:16:20.319Z,9.85
2023-05-01T21:18:46.865Z,9.57
2023-05-01T21:21:14.050Z,9.10
2023-05-01T21:23:46.664Z,9.77
2023-05-01T21:26:14.017Z,10.70
2023-05-01T21:28:40.773Z,11.02
2023-05-01T21:31:10.241Z,9.63
2023-05-01T21:33:37.595Z,11.57
2023-05-01T21:36:04.415Z,13.68
2023-05-01T21:38:31.252Z,10.10
2023-05-01T21:40:57.907Z,13.45
2023-05-01T21:43:24.456Z,12.43
2023-05-01T21:45:51.031Z,11.57
2023-05-01T21:48:19.288Z,11.40
2023-05-01T21:50:48.866Z,11.40
2023-05-01T21:55:45.867Z,11.18
2023-05-01T21:58:13.705Z,11.98
2023-05-01T22:00:41.804Z,12.10
2023-05-01T22:03:09.224Z,11.73
2023-05-01T22:05:40.701Z,11.45
2023-05-01T22:08:07.440Z,10.82
2023-05-01T22:10:34.023Z,10.82
2023-05-01T22:13:00.697Z,11.55
2023-05-01T22:15:27.260Z,13.82
2023-05-01T22:17:53.781Z,10.48
2023-05-01T22:20:20.413Z,11.73
2023-05-01T22:22:46.976Z,15.73
2023-05-01T22:25:13.663Z,10.73
2023-05-01T22:27:43.093Z,10.73
2023-05-01T22:32:36.986Z,11.52
2023-05-01T22:35:04.065Z,9.43
2023-05-01T22:37:30.608Z,11.20
2023-05-01T22:39:57.383Z,12.48
2023-05-01T22:42:24.424Z,11.88
2023-05-01T22:44:50.985Z,13.15
2023-05-01T22:47:17.624Z,12.02
2023-05-01T22:49:44.241Z,10.95
2023-05-01T22:52:10.801Z,11.82
2023-05-01T22:54:37.374Z,11.40
2023-05-01T22:57:03.980Z,12.98
2023-05-01T22:59:30.603Z,11.98
2023-05-01T23:01:57.478Z,11.77
2023-05-01T23:04:24.170Z,11.52
2023-05-01T23:06:50.788Z,11.82
2023-05-01T23:09:17.734Z,12.40
2023-05-01T23:11:47.454Z,12.25
2023-05-01T23:14:17.229Z,12.18
2023-05-01T23:16:43.804Z,11.18
2023-05-01T23:19:19.197Z,14.10
2023-05-01T23:21:45.914Z,12.57
2023-05-01T23:24:17.687Z,12.48
2023-05-01T23:26:44.574Z,11.63
2023-05-01T23:29:12.483Z,12.60
2023-05-01T23:31:45.117Z,14.95
2023-05-01T23:34:15.186Z,21.42
2023-05-01T23:36:44.123Z,19.33
2023-05-01T23:39:10.666Z,21.00
2023-05-01T23:41:37.430Z,23.42
2023-05-01T23:44:04.365Z,19.25
2023-05-01T23:46:31.433Z,18.67
2023-05-01T23:48:57.960Z,19.02
2023-05-01T23:51:24.457Z,17.55
2023-05-01T23:53:50.995Z,17.08
2023-05-01T23:56:17.481Z,19.08
2023-05-01T23:58:43.950Z,19.98
